Flight Track Log - Related Links

Times and Time Zones

All times are in EDT time to prevent confusion due to time zone crossing. See the UAL1740 flight status page for this flight to view local times or setup timezone preferences in your user account.

Time Position Orientation Groundspeed Altitude Reporting Facility
EDT Latitude Longitude Course Direction KTS MPH feet Rate Location/Type
Tue 06:08:50 AM 40.6481 -74.1764 180° South 180 207 2,400  Level New York Center
Tue 06:09:51 AM 40.6031 -74.2150 213° Southwest 190 219 5,900 3,681 Climbing New York Center
Tue 06:10:49 AM 40.5392 -74.2664 211° Southwest 248 285 9,700 3,250 Climbing New York Center
Tue 06:11:51 AM 40.4669 -74.2383 164° South 254 292 12,400 3,211 Climbing New York Center
Tue 06:13:54 AM 40.2633 -74.1725 166° South 339 390 19,600 3,462 Climbing Washington Center
Tue 06:14:00 AM 40.0885 -74.2167 180° South  Level FlightAware Approximate
Tue 06:14:53 AM 40.1767 -74.2311 207° Southwest 344 396 22,900  Level Washington Center
Tue 06:15:54 AM 40.0942 -74.3169 219° Southwest 349 402 24,000 1,311 Climbing Washington Center
Tue 06:16:52 AM 40.0117 -74.3969 217° Southwest 371 427 25,500 1,916 Climbing Washington Center
Tue 06:17:53 AM 39.9292 -74.4822 218° Southwest 383 441 27,800 2,132 Climbing Washington Center
Tue 06:18:53 AM 39.8425 -74.5700 218° Southwest 394 453 29,800 1,934 Climbing Washington Center
Tue 06:19:54 AM 39.7517 -74.6631 218° Southwest 400 460 31,700 2,083 Climbing Washington Center
Tue 06:20:54 AM 39.6522 -74.7425 212° Southwest 412 474 34,000 2,136 Climbing Washington Center
Tue 06:21:52 AM 39.5483 -74.8058 205° Southwest 412 474 35,900 942 Climbing Washington Center
Tue 06:22:55 AM 39.4508 -74.8631 204° Southwest 405 466 35,900  Level Washington Center
Tue 06:23:53 AM 39.3656 -74.9150 205° Southwest 400 460 35,900  Level Washington Center
Tue 06:24:55 AM 39.2661 -74.9750 205° Southwest 395 455 35,900 49 Level Washington Center
Tue 06:25:55 AM 39.1683 -75.0294 203° Southwest 395 455 36,000 51 Climbing Washington Center
Tue 06:26:53 AM 39.0706 -75.0864 204° Southwest 395 455 36,000  Level Washington Center
Tue 06:27:54 AM 38.9728 -75.1458 205° Southwest 395 455 36,000  Level Washington Center
Tue 06:28:54 AM 38.8750 -75.2050 205° Southwest 395 455 36,000 -51 Level Washington Center
Tue 06:29:52 AM 38.7772 -75.2642 205° Southwest 395 455 35,900  Descending Washington Center
Tue 06:30:53 AM 38.6794 -75.3178 203° Southwest 390 449 36,000 49 Climbing Washington Center
Tue 06:31:54 AM 38.5836 -75.3792 207° Southwest 390 449 36,000  Level Washington Center
Tue 06:32:55 AM 38.4858 -75.4325 203° Southwest 390 449 36,000  Level Washington Center
Tue 06:33:53 AM 38.3836 -75.4831 201° Southwest 390 449 36,000  Level Washington Center
Tue 06:34:53 AM 38.2817 -75.5256 198° South 390 449 36,000  Level Washington Center
Tue 06:35:55 AM 38.1794 -75.5706 199° South 390 449 36,000  Level Washington Center
Tue 06:36:53 AM 38.0772 -75.6181 200° South 390 449 36,000  Level Washington Center
Tue 06:37:54 AM 37.9811 -75.6708 203° Southwest 385 443 36,000  Level Washington Center
Tue 06:38:55 AM 37.8792 -75.7128 198° South 385 443 36,000  Level Washington Center
Tue 06:39:55 AM 37.7767 -75.7600 200° South 391 450 36,000  Level Washington Center
Tue 06:40:52 AM 37.6744 -75.8044 199° South 391 450 36,000  Level Washington Center
Tue 06:41:53 AM 37.5744 -75.8511 200° South 391 450 36,000  Level Washington Center
Tue 06:42:53 AM 37.4678 -75.8981 199° South 397 457 36,000  Level Washington Center
Tue 06:43:55 AM 37.3614 -75.9447 199° South 403 464 36,000  Level Washington Center
Tue 06:44:54 AM 37.2528 -75.9936 200° South 409 471 36,000  Level Washington Center
Tue 06:45:54 AM 37.1461 -76.0425 200° South 409 471 36,000  Level Washington Center
Tue 06:46:53 AM 37.0375 -76.0914 200° South 409 471 36,000  Level Washington Center
Tue 06:47:53 AM 36.9247 -76.1350 197° South 409 471 36,000  Level Washington Center
Tue 06:48:53 AM 36.8181 -76.1833 200° South 414 476 36,000  Level Washington Center
Tue 06:49:53 AM 36.7008 -76.2369 200° South 414 476 36,000 -49 Level Washington Center
Tue 06:50:55 AM 36.5942 -76.2828 199° South 414 476 35,900  Descending Washington Center
Tue 06:51:54 AM 36.4875 -76.3283 199° South 409 471 36,000 50 Climbing Washington Center
Tue 06:52:55 AM 36.3831 -76.3736 199° South 409 471 36,000 -50 Level Washington Center
Tue 06:53:54 AM 36.2764 -76.4192 199° South 409 471 35,900  Descending Washington Center
Tue 06:54:54 AM 36.1717 -76.4642 199° South 409 471 36,000 51 Climbing Washington Center
Tue 06:55:52 AM 36.0650 -76.5119 200° South 409 471 36,000  Level Washington Center
Tue 06:56:53 AM 35.9603 -76.5544 198° South 409 471 36,000  Level Washington Center
Tue 06:57:54 AM 35.8556 -76.6017 200° South 409 471 36,000  Level Washington Center
Tue 06:58:54 AM 35.7486 -76.6464 199° South 409 471 36,000  Level Washington Center
Tue 06:59:55 AM 35.6461 -76.6886 199° South 409 471 36,000  Level Washington Center
Tue 07:00:53 AM 35.5414 -76.7331 199° South 409 471 36,000 -51 Level Washington Center
Tue 07:01:53 AM 35.4386 -76.7775 199° South 404 465 35,900  Descending Washington Center
Tue 07:02:54 AM 35.3464 -76.8169 199° South 404 465 36,000 49 Climbing Washington Center
Tue 07:03:55 AM 35.2417 -76.8586 198° South 399 459 36,000  Level Washington Center
Tue 07:04:54 AM 35.1389 -76.9028 199° South 399 459 36,000  Level Washington Center
Tue 07:05:54 AM 35.0258 -76.9517 200° South 399 459 36,000  Level Washington Center
Tue 07:06:55 AM 34.9189 -76.9953 198° South 404 465 36,000  Level Washington Center
Tue 07:07:54 AM 34.8161 -77.0417 200° South 404 465 36,000  Level Washington Center
Tue 07:08:54 AM 34.7111 -77.0853 199° South 404 465 36,000  Level Washington Center
Tue 07:09:55 AM 34.6042 -77.1261 197° South 409 471 36,000  Level Washington Center
Tue 07:10:53 AM 34.4994 -77.1672 198° South 409 471 36,000 -50 Level Washington Center
Tue 07:11:54 AM 34.3967 -77.2106 199° South 404 465 35,900  Descending Washington Center
Tue 07:12:55 AM 34.2917 -77.2561 200° South 404 465 36,000  Climbing Washington Center
Tue 07:13:55 AM 34.1889 -77.2992 199° South 404 465 35,900 -38 Descending Washington Center
Tue 07:15:32 AM 34.0283 -77.3653 199° South 395 455 35,900 38 Level Jacksonville Center
Tue 07:16:32 AM 33.9236 -77.4044 197° South 389 448 36,000 50 Climbing Jacksonville Center
Tue 07:17:32 AM 33.8189 -77.4458 198° South 394 453 36,000 -50 Level Jacksonville Center
Tue 07:18:32 AM 33.7167 -77.4897 200° South 394 453 35,900 -50 Descending Jacksonville Center
Tue 07:19:32 AM 33.6119 -77.5333 199° South 394 453 35,900  Level Jacksonville Center
Tue 07:20:33 AM 33.4992 -77.5778 198° South 394 453 35,900 50 Level Jacksonville Center
Tue 07:21:32 AM 33.3922 -77.6189 198° South 394 453 36,000 50 Climbing Jacksonville Center
Tue 07:22:32 AM 33.2878 -77.6625 199° South 394 453 36,000 -50 Level Jacksonville Center
Tue 07:23:33 AM 33.1850 -77.7031 198° South 394 453 35,900  Descending Jacksonville Center
Tue 07:24:33 AM 33.0783 -77.7464 199° South 394 453 36,000 50 Climbing Jacksonville Center
Tue 07:25:33 AM 32.9756 -77.7869 198° South 394 453 36,000  Level Jacksonville Center
Tue 07:26:33 AM 32.8728 -77.8250 197° South 394 453 36,000  Level Jacksonville Center
Tue 07:27:33 AM 32.7683 -77.8706 200° South 394 453 36,000  Level Jacksonville Center
Tue 07:28:33 AM 32.6633 -77.9083 197° South 394 453 36,000  Level Jacksonville Center
Tue 07:29:32 AM 32.5606 -77.9508 199° South 394 453 36,000 -50 Level Jacksonville Center
Tue 07:30:32 AM 32.4558 -77.9911 198° South 394 453 35,900  Descending Jacksonville Center
Tue 07:31:32 AM 32.3531 -78.0336 199° South 394 453 36,000  Climbing Jacksonville Center
Tue 07:32:32 AM 32.2481 -78.0711 197° South 400 460 35,900  Descending Jacksonville Center
Tue 07:33:33 AM 32.1453 -78.1133 199° South 400 460 36,000 50 Climbing Jacksonville Center
Tue 07:34:32 AM 32.0425 -78.1528 198° South 400 460 36,000  Level Jacksonville Center
Tue 07:35:32 AM 31.9372 -78.1900 197° South 394 453 36,000  Level Jacksonville Center
Tue 07:36:33 AM 31.8347 -78.2369 201° Southwest 399 459 36,000 -50 Level Jacksonville Center
Tue 07:37:32 AM 31.7339 -78.2761 198° South 399 459 35,900  Descending Jacksonville Center
Tue 07:38:33 AM 31.6289 -78.3203 200° South 393 452 36,000 50 Climbing Jacksonville Center
Tue 07:39:33 AM 31.5322 -78.3544 197° South 393 452 36,000  Level Jacksonville Center
Tue 07:40:32 AM 31.4292 -78.3936 198° South 388 447 36,000 -50 Level Jacksonville Center
Tue 07:41:32 AM 31.3303 -78.4322 198° South 382 440 35,900  Descending Jacksonville Center
Tue 07:42:32 AM 31.2253 -78.4714 198° South 387 445 36,000 50 Climbing Jacksonville Center
Tue 07:43:32 AM 31.1242 -78.5100 198° South 387 445 36,000 -50 Level Jacksonville Center
Tue 07:44:32 AM 31.0214 -78.5511 199° South 387 445 35,900 -50 Descending Jacksonville Center
Tue 07:45:33 AM 30.9183 -78.5897 198° South 387 445 35,900 50 Level Jacksonville Center
Tue 07:46:32 AM 30.8153 -78.6283 198° South 387 445 36,000 50 Climbing Jacksonville Center
Tue 07:47:33 AM 30.7142 -78.6667 198° South 392 451 36,000  Level Jacksonville Center
Tue 07:48:32 AM 30.6133 -78.7075 199° South 392 451 36,000  Level Jacksonville Center
Tue 07:49:05 AM 30.5558 -78.7267 196° South 393 452 36,000  Level Miami Center
Tue 07:50:05 AM 30.4594 -78.7589 196° South 401 461 36,000  Level Miami Center
Tue 07:51:05 AM 30.3525 -78.7978 197° South 401 461 36,000 -50 Level Miami Center
Tue 07:52:05 AM 30.2519 -78.8344 197° South 401 461 35,900  Descending Miami Center
Tue 07:53:05 AM 30.1494 -78.8708 197° South 401 461 36,000 50 Climbing Miami Center
Tue 07:54:05 AM 30.0425 -78.9094 197° South 401 461 36,000 -50 Level Miami Center
Tue 07:55:05 AM 29.9378 -78.9483 198° South 396 456 35,900 -50 Descending Miami Center
Tue 07:56:05 AM 29.8369 -78.9894 199° South 401 461 35,900 50 Level Miami Center
Tue 07:57:05 AM 29.7242 -79.0086 188° South 401 461 36,000 50 Climbing Miami Center
Tue 07:58:05 AM 29.6175 -79.0328 191° South 401 461 36,000  Level Miami Center
Tue 07:59:05 AM 29.5067 -79.0567 191° South 401 461 36,000  Level Miami Center
Tue 08:00:05 AM 29.3956 -79.0761 189° South 416 479 36,000  Level Miami Center
Tue 08:01:05 AM 29.2828 -79.0950 188° South 416 479 36,000  Level Miami Center
Tue 08:02:05 AM 29.1697 -79.1119 187° South 411 473 36,000  Level Miami Center
Tue 08:03:05 AM 29.0569 -79.1333 189° South 411 473 36,000  Level Miami Center
Tue 08:04:05 AM 28.9439 -79.1547 189° South 411 473 36,000  Level Miami Center
Tue 08:05:05 AM 28.8308 -79.1736 188° South 419 482 36,000  Level Miami Center
Tue 08:06:05 AM 28.7200 -79.1950 190° South 414 476 36,000  Level Miami Center
Tue 08:07:05 AM 28.6028 -79.2139 188° South 414 476 36,000 -300 Level Miami Center
Tue 08:08:05 AM 28.4939 -79.2353 190° South 409 471 35,400 -1,750 Descending Miami Center
Tue 08:09:05 AM 28.3831 -79.2542 189° South 409 471 32,500 -3,050 Descending Miami Center
Tue 08:10:05 AM 28.2678 -79.2753 189° South 415 478 29,300 -2,900 Descending Miami Center
Tue 08:11:05 AM 28.1547 -79.2939 188° South 415 478 26,700 -2,550 Descending Miami Center
Tue 08:12:05 AM 28.0478 -79.3153 190° South 405 466 24,200 -1,350 Descending Miami Center
Tue 08:13:05 AM 27.9392 -79.3339 189° South 400 460 24,000 -100 Descending Miami Center
Tue 08:14:05 AM 27.8278 -79.3667 195° South 381 438 24,000 -400 Level Miami Center
Tue 08:15:05 AM 27.7433 -79.4283 213° Southwest 360 414 23,200 -1,500 Descending Miami Center
Tue 08:16:05 AM 27.6606 -79.4897 213° Southwest 366 421 21,000 -2,200 Descending Miami Center
Tue 08:17:05 AM 27.5867 -79.5444 213° Southwest 361 415 18,800 -2,150 Descending Miami Center
Tue 08:18:05 AM 27.5061 -79.6033 213° Southwest 356 410 16,700 -2,300 Descending Miami Center
Tue 08:19:05 AM 27.4192 -79.6692 214° Southwest 356 410 14,200 -2,250 Descending Miami Center
Tue 08:20:05 AM 27.3389 -79.7281 213° Southwest 349 402 12,200 -1,950 Descending Miami Center
Tue 08:21:05 AM 27.2644 -79.7844 214° Southwest 339 390 10,300 -1,500 Descending Miami Center
Tue 08:22:05 AM 27.1989 -79.8319 213° Southwest 333 383 9,200 -1,150 Descending Miami Center
Tue 08:23:05 AM 27.1289 -79.8814 212° Southwest 321 369 8,000 -1,000 Descending Miami Center
Tue 08:24:05 AM 27.0486 -79.9214 204° Southwest 291 335 7,200 -1,100 Descending Miami Center
Tue 08:25:05 AM 26.9689 -79.9403 192° South 285 328 5,800 -1,350 Descending Miami Center
Tue 08:26:05 AM 26.8936 -79.9544 190° South 285 328 4,500 -1,250 Descending Miami Center
Tue 08:27:05 AM 26.8306 -79.9669 190° South 268 308 3,300 -950 Descending Miami Center
Tue 08:28:05 AM 26.7572 -79.9836 191° South 251 289 2,600 -650 Descending Miami Center
Tue 08:29:05 AM 26.7047 -79.9936 190° South 223 257 2,000 -600 Descending Miami Center
Tue 08:31:00 AM 26.6832 -80.0956 265° West  Level Estimated
Tue 08:38:00 AM 26.6832 -80.0956 110° East  Level Estimated
Tue 08:39:00 AM 26.6832 -80.0956 110° East  Level Estimated

Login

Don't have an account? Register now (free) for customized features, flight alerts, and more!